Map

Track Data

SID SEASON NUMBER BASIN SUBBASIN NAME ISO_TIME NATURE LAT LON WMO_WIND WMO_PRES WMO_AGENCY TRACK_TYPE DIST2LAND LANDFALL IFLAG USA_AGENCY USA_ATCF_ID USA_LAT USA_LON USA_RECORD USA_STATUS USA_WIND USA_PRES USA_SSHS USA_R34_NE USA_R34_SE USA_R34_SW USA_R34_NW USA_R50_NE USA_R50_SE USA_R50_SW USA_R50_NW USA_R64_NE USA_R64_SE USA_R64_SW USA_R64_NW USA_POCI USA_ROCI USA_RMW USA_EYE TOKYO_LAT TOKYO_LON TOKYO_GRADE TOKYO_WIND TOKYO_PRES TOKYO_R50_DIR TOKYO_R50_LONG TOKYO_R50_SHORT TOKYO_R30_DIR TOKYO_R30_LONG TOKYO_R30_SHORT TOKYO_LAND CMA_LAT CMA_LON CMA_CAT CMA_WIND CMA_PRES HKO_LAT HKO_LON HKO_CAT HKO_WIND HKO_PRES NEWDELHI_LAT NEWDELHI_LON NEWDELHI_GRADE NEWDELHI_WIND NEWDELHI_PRES NEWDELHI_CI NEWDELHI_DP NEWDELHI_POCI REUNION_LAT REUNION_LON REUNION_TYPE REUNION_WIND REUNION_PRES REUNION_TNUM REUNION_CI REUNION_RMW REUNION_R34_NE REUNION_R34_SE REUNION_R34_SW REUNION_R34_NW REUNION_R50_NE REUNION_R50_SE REUNION_R50_SW REUNION_R50_NW REUNION_R64_NE REUNION_R64_SE REUNION_R64_SW REUNION_R64_NW BOM_LAT BOM_LON BOM_TYPE BOM_WIND BOM_PRES BOM_TNUM BOM_CI BOM_RMW BOM_R34_NE BOM_R34_SE BOM_R34_SW BOM_R34_NW BOM_R50_NE BOM_R50_SE BOM_R50_SW BOM_R50_NW BOM_R64_NE BOM_R64_SE BOM_R64_SW BOM_R64_NW BOM_ROCI BOM_POCI BOM_EYE BOM_POS_METHOD BOM_PRES_METHOD NADI_LAT NADI_LON NADI_CAT NADI_WIND NADI_PRES WELLINGTON_LAT WELLINGTON_LON WELLINGTON_WIND WELLINGTON_PRES DS824_LAT DS824_LON DS824_STAGE DS824_WIND DS824_PRES TD9636_LAT TD9636_LON TD9636_STAGE TD9636_WIND TD9636_PRES TD9635_LAT TD9635_LON TD9635_WIND TD9635_PRES TD9635_ROCI NEUMANN_LAT NEUMANN_LON NEUMANN_CLASS NEUMANN_WIND NEUMANN_PRES MLC_LAT MLC_LON MLC_CLASS MLC_WIND MLC_PRES USA_GUST BOM_GUST BOM_GUST_PER REUNION_GUST REUNION_GUST_PER USA_SEAHGT USA_SEARAD_NE USA_SEARAD_SE USA_SEARAD_SW USA_SEARAD_NW STORM_SPEED STORM_DIR
1986308N11090 1986 106 NI BB NOT_NAMED 1986-11-04 00:00:00 NR 11.2000 89.7000 main 723 723 __________O___ -1 11.2000 89.7000 0 7 296
1986308N11090 1986 106 NI BB NOT_NAMED 1986-11-04 03:00:00 NR 11.3503 89.3861 main 730 730 __________P___ -1 11.3503 89.3861 0 7 296
1986308N11090 1986 106 NI BB NOT_NAMED 1986-11-04 06:00:00 NR 11.5003 89.0676 main 746 746 __________P___ -1 11.5003 89.0676 0 7 295
1986308N11090 1986 106 NI BB NOT_NAMED 1986-11-04 09:00:00 NR 11.6502 88.7403 main 764 764 __________P___ -1 11.6502 88.7403 0 7 295
1986308N11090 1986 106 NI BB NOT_NAMED 1986-11-04 12:00:00 NR 11.8000 88.4000 main 783 783 __________O___ -1 11.8000 88.4000 0 7 293
1986308N11090 1986 106 NI BB NOT_NAMED 1986-11-04 15:00:00 NR 11.9466 88.0421 main 808 769 __________P___ -1 11.9466 88.0421 0 8 291
1986308N11090 1986 106 NI BB NOT_NAMED 1986-11-04 18:00:00 NR 12.0746 87.6603 main 769 729 __________P___ -1 12.0746 87.6603 0 8 286
1986308N11090 1986 106 NI BB NOT_NAMED 1986-11-04 21:00:00 NR 12.1653 87.2484 main 721 691 __________P___ -1 12.1653 87.2484 0 9 278
1986308N11090 1986 106 NI BB NOT_NAMED 1986-11-05 00:00:00 NR 12.2000 86.8000 main 691 661 __________O___ -1 12.2000 86.8000 0 9 268
1986308N11090 1986 106 NI BB NOT_NAMED 1986-11-05 03:00:00 NR 12.1332 86.3021 main 662 611 __________P___ -1 12.1332 86.3021 0 10 260
1986308N11090 1986 106 NI BB NOT_NAMED 1986-11-05 06:00:00 NR 12.0152 85.7714 main 611 558 __________P___ -1 12.0152 85.7714 0 11 257
1986308N11090 1986 106 NI BB NOT_NAMED 1986-11-05 09:00:00 NR 11.8895 85.2302 main 547 495 __________P___ -1 11.8895 85.2302 0 11 258
1986308N11090 1986 106 NI BB NOT_NAMED 1986-11-05 12:00:00 NR 11.8000 84.7000 main 495 442 __________O___ -1 11.8000 84.7000 0 10 263
1986308N11090 1986 106 NI BB NOT_NAMED 1986-11-05 15:00:00 NR 11.7741 84.2025 main 442 388 __________P___ -1 11.7741 84.2025 0 10 270
1986308N11090 1986 106 NI BB NOT_NAMED 1986-11-05 18:00:00 NR 11.7947 83.7199 main 388 343 __________P___ -1 11.7947 83.7199 0 9 276
1986308N11090 1986 106 NI BB NOT_NAMED 1986-11-05 21:00:00 NR 11.8679 83.2523 main 343 288 __________P___ -1 11.8679 83.2523 0 9 283
1986308N11090 1986 106 NI BB NOT_NAMED 1986-11-06 00:00:00 NR 12.0000 82.8000 main 288 232 __________O___ -1 12.0000 82.8000 1 10 286
1986308N11090 1986 106 NI BB NOT_NAMED 1986-11-06 03:00:00 NR 12.1398 82.3121 main 232 186 __________P___ -1 12.1398 82.3121 1 10 290
1986308N11090 1986 106 NI BB NOT_NAMED 1986-11-06 06:00:00 NR 12.3428 81.8453 main 175 141 __________P___ -1 12.3428 81.8453 1 10 299
1986308N11090 1986 106 NI BB NOT_NAMED 1986-11-06 09:00:00 NR 12.6243 81.4308 main 130 92 __________P___ -1 12.6243 81.4308 1 10 312
1986308N11090 1986 106 NI BB NOT_NAMED 1986-11-06 12:00:00 NR 13.0000 81.1000 main 92 54 __________O___ -1 13.0000 81.1000 1 11 324
1986308N11090 1986 106 NI BB NOT_NAMED 1986-11-06 15:00:00 NR 13.5293 80.7482 main 43 31 __________P___ -1 13.5293 80.7482 1 13 333
1986308N11090 1986 106 NI BB NOT_NAMED 1986-11-06 18:00:00 NR 14.1407 80.5000 main 39 21 __________P___ -1 14.1407 80.5000 1 13 346
1986308N11090 1986 106 NI BB NOT_NAMED 1986-11-06 21:00:00 NR 14.7568 80.4265 main 31 31 __________P___ -1 14.7568 80.4265 1 12 5
1986308N11090 1986 106 NI BB NOT_NAMED 1986-11-07 00:00:00 NR 15.3000 80.6000 main 48 11 __________O___ -1 15.3000 80.6000 1 11 37
1986308N11090 1986 106 NI BB NOT_NAMED 1986-11-07 03:00:00 NR 15.6513 81.1380 main 15 15 __________P___ -1 15.6513 81.1380 1 14 64
1986308N11090 1986 106 NI BB NOT_NAMED 1986-11-07 06:00:00 NR 15.9210 81.9115 main 49 49 __________P___ -1 15.9210 81.9115 1 17 72
1986308N11090 1986 106 NI BB NOT_NAMED 1986-11-07 09:00:00 NR 16.1548 82.7794 main 69 69 __________P___ -1 16.1548 82.7794 1 17 74
1986308N11090 1986 106 NI BB NOT_NAMED 1986-11-07 12:00:00 NR 16.4000 83.6000 main 135 135 __________O___ -1 16.4000 83.6000 1 15 69
1986308N11090 1986 106 NI BB NOT_NAMED 1986-11-07 15:00:00 NR 16.6868 84.1973 main 146 146 __________P___ -1 16.6868 84.1973 1 12 61
1986308N11090 1986 106 NI BB NOT_NAMED 1986-11-07 18:00:00 NR 17.0014 84.7214 main 158 149 __________P___ -1 17.0014 84.7214 1 12 54
1986308N11090 1986 106 NI BB NOT_NAMED 1986-11-07 21:00:00 NR 17.3653 85.1848 main 153 153 __________P___ -1 17.3653 85.1848 1 12 46
1986308N11090 1986 106 NI BB NOT_NAMED 1986-11-08 00:00:00 NR 17.8000 85.6000 main 153 145 __________O___ -1 17.8000 85.6000 1 12 37
1986308N11090 1986 106 NI BB NOT_NAMED 1986-11-08 03:00:00 NR 18.3596 85.9693 main 148 109 __________P___ -1 18.3596 85.9693 1 14 29
1986308N11090 1986 106 NI BB NOT_NAMED 1986-11-08 06:00:00 NR 18.9836 86.3008 main 102 49 __________P___ -1 18.9836 86.3008 1 14 27
1986308N11090 1986 106 NI BB NOT_NAMED 1986-11-08 09:00:00 NR 19.6159 86.6319 main 49 30 __________P___ -1 19.6159 86.6319 1 14 28
1986308N11090 1986 106 NI BB NOT_NAMED 1986-11-08 12:00:00 NR 20.2000 87.0000 main 33 30 __________O___ -1 20.2000 87.0000 2 13 35
1986308N11090 1986 106 NI BB NOT_NAMED 1986-11-08 15:00:00 NR 20.6931 87.4333 main 41 41 __________P___ -1 20.6931 87.4333 2 13 44
1986308N11090 1986 106 NI BB NOT_NAMED 1986-11-08 18:00:00 NR 21.1070 87.9231 main 63 22 __________P___ -1 21.1070 87.9231 2 12 51
1986308N11090 1986 106 NI BB NOT_NAMED 1986-11-08 21:00:00 NR 21.4674 88.4513 main 11 0 __________P___ -1 21.4674 88.4513 2 12 55
1986308N11090 1986 106 NI BB NOT_NAMED 1986-11-09 00:00:00 NR 21.8000 89.0000 main 0 __________O___ -1 21.8000 89.0000 2 50 12 57

About IBTrACS Database

This database is a web-friendly format of International Best Track Archive for Climate Stewardship (IBTrACS), a global best track data archive curated by NOAA dating back to 1842.

Updated: 2021-11-26